Terminal Aerodrome Forecast
Issued by NWS Louisville, KY

Home | Current Version | Previous Version | Text Only | Print | Product List | Glossary On
Versions: 1 2 3 4 5 6 7 8 9 10 11 12 13
517
FTUS43 KLMK 221120
TAFSDF
TAF
KSDF 221120Z 2212/2318 15004KT P6SM FEW110 FEW250 WS020/19035KT
     FM221430 17014G21KT P6SM SCT100
     FM230100 15007KT P6SM -SHRA BKN040
     FM230900 18006KT 4SM -SHRA BR BKN015
     FM231400 31004KT 3SM -SHRA BR BKN008=

USA.gov is the U.S. government's official web portal to all federal, state and local government web resources and services.